Fantasy — H3GS — position and weather

sailwx.info

Track history (hours):
 
Tides and Currents Weather Stations Pressure Air Temp Water Temp Dewpoint Dewpoint Depression Visibility Wind Speed Wind Dir Waves Ship Positions

Fantasy

Operator: Carnival Cruise Lines

Last reported at 2018-Jun-24 13:00 UTC. Time now 2018-Jun-24 20:17 UTC.
Position N 24°54' W 086°48'.

Type: Ship. MMSI: 353486000.

Wind from 120 at 5 knots

Barometer 1015.0 mb
Air temperature 30.0 ° C
Visibility: greater than 10.8 NM
Dewpoint 25.8 ° C
Water temperature 29.0 ° C

Date/timePositionNaut miles runAvg speedWind from/ knotsBaromVisibWave heightAir tempDewpointWater temp
2018-Jun-24 13:00N 24°54' W 086°48'25817.6 120 / 51015.010.8 30.025.829.0
2018-Jun-23 22:21N 20°36' W 086°56'616.2
2018-Jun-23 22:00N 20°31' W 086°59'2 4.2
2018-Jun-23 21:28N 20°29' W 086°59'0 0.0
2018-Jun-23 20:58N 20°29' W 086°59'0 0.0
2018-Jun-23 20:25N 20°29' W 086°59'0 0.0
2018-Jun-23 20:01N 20°29' W 086°59'0 0.0
2018-Jun-23 19:24N 20°29' W 086°59'0 0.0
2018-Jun-23 19:00N 20°29' W 086°59'0 0.0
2018-Jun-23 18:30N 20°29' W 086°59'0 0.0
2018-Jun-23 18:00N 20°29' W 086°59'0 0.0
2018-Jun-23 17:23N 20°29' W 086°59'0 0.0
2018-Jun-23 16:59N 20°29' W 086°59'0 0.0
2018-Jun-23 16:29N 20°29' W 086°59'0 0.0
2018-Jun-23 15:59N 20°29' W 086°59'0 0.0
2018-Jun-23 15:26N 20°29' W 086°59'0 0.0
2018-Jun-23 14:58N 20°29' W 086°59'0 0.0
2018-Jun-23 14:28N 20°29' W 086°59'0 0.0
2018-Jun-23 13:58N 20°29' W 086°59'0 0.0
2018-Jun-23 13:28N 20°29' W 086°59'0 0.0
2018-Jun-23 13:00N 20°29' W 086°59'0 0.0
2018-Jun-23 12:29N 20°29' W 086°59'2 3.9
2018-Jun-23 12:00N 20°30' W 086°59'4 7.3
2018-Jun-23 11:30N 20°34' W 086°58'34416.0
2018-Jun-22 14:00N 26°18' W 086°48'2524.6 200 / 131016.010.8 29.023.227.0
2018-Jun-22 13:00N 26°42' W 086°54'13 0.3 210 / 151014.010.8 28.022.129.0
2018-Jun-20 18:00N 26°30' W 087°00'12017.2 110 / 71015.010.8 30.024.329.0
2018-Jun-20 11:00N 24°30' W 086°48'23317.9 190 / 31014.010.8 27.024.129.0
2018-Jun-19 21:58N 20°37' W 086°56'716.1
2018-Jun-19 21:30N 20°30' W 086°59'1 2.5
2018-Jun-19 20:59N 20°29' W 086°59'0 0.0
2018-Jun-19 20:29N 20°29' W 086°59'0 0.0
2018-Jun-19 19:58N 20°29' W 086°59'0 0.0
2018-Jun-19 19:28N 20°29' W 086°59'0 0.0
2018-Jun-19 18:58N 20°29' W 086°59'0 0.0
2018-Jun-19 18:28N 20°29' W 086°59'0 0.0
2018-Jun-19 17:58N 20°29' W 086°59'0 0.0
2018-Jun-19 17:30N 20°29' W 086°59'0 0.0
2018-Jun-19 17:00N 20°29' W 086°59'0 0.0
2018-Jun-19 16:30N 20°29' W 086°59'0 0.0
2018-Jun-19 16:00N 20°29' W 086°59'0 0.0
2018-Jun-19 15:30N 20°29' W 086°59'0 0.0
2018-Jun-19 14:59N 20°29' W 086°59'0 0.0
2018-Jun-19 14:29N 20°29' W 086°59'0 0.0
2018-Jun-19 13:59N 20°29' W 086°59'0 0.0
2018-Jun-19 13:29N 20°29' W 086°59'0 0.0
2018-Jun-19 12:55N 20°29' W 086°59'0 0.0
2018-Jun-19 12:28N 20°29' W 086°59'0 1.1
2018-Jun-19 12:00N 20°29' W 086°59'3 5.7
2018-Jun-19 11:30N 20°30' W 087°02'9712.9
2018-Jun-19 04:00N 18°54' W 087°18'61 4.1 110 / 271014.010.8 28.025.227.0
2018-Jun-18 13:00N 19°48' W 086°48'16414.9 130 / 301015.010.8 27.024.128.0
2018-Jun-18 02:00N 22°24' W 085°54'20919.0 130 / 161017.010.8 28.026.627.0
2018-Jun-17 15:00N 25°48' W 086°42'4221.2 110 / 351017.0 26.019.925.0
2018-Jun-17 13:00N 26°30' W 086°48'129 3.7 110 / 251017.010.8 29.023.228.0
2018-Jun-16 02:00N 28°36' W 087°18'22417.2 110 / 111016.010.8 28.025.227.0
2018-Jun-15 13:00N 24°54' W 086°48'20518.7 110 / 111015.010.8 29.023.229.0
2018-Jun-15 02:00N 21°30' W 086°24'6216.8 090 / 331014.010.8 28.023.727.0
2018-Jun-14 22:18N 20°36' W 086°56'413.2
2018-Jun-14 22:00N 20°32' W 086°58'3 6.9
2018-Jun-14 21:30N 20°29' W 086°59'0 0.6
2018-Jun-14 20:59N 20°29' W 086°59'0 0.0
2018-Jun-14 20:29N 20°29' W 086°59'0 0.0
2018-Jun-14 19:59N 20°29' W 086°59'0 0.0
2018-Jun-14 19:29N 20°29' W 086°59'0 0.0
2018-Jun-14 18:56N 20°29' W 086°59'0 0.0
2018-Jun-14 18:28N 20°29' W 086°59'0 0.0
2018-Jun-14 17:58N 20°29' W 086°59'0 0.0
2018-Jun-14 17:28N 20°29' W 086°59'0 0.0
2018-Jun-14 16:58N 20°29' W 086°59'0 0.0
2018-Jun-14 16:30N 20°29' W 086°59'0 0.0
2018-Jun-14 16:00N 20°29' W 086°59'0 0.0
2018-Jun-14 15:30N 20°29' W 086°59'0 0.0
2018-Jun-14 15:00N 20°29' W 086°59'0 0.0
2018-Jun-14 14:27N 20°29' W 086°59'0 0.0
2018-Jun-14 13:59N 20°29' W 086°59'0 0.0
2018-Jun-14 13:29N 20°29' W 086°59'  
Track history (hours):
 
Tides and Currents Weather Stations Pressure Air Temp Water Temp Dewpoint Dewpoint Depression Visibility Wind Speed Wind Dir Waves Ship Positions

Fantasy

Operator: Carnival Cruise Lines

Last reported at 2018-Jun-24 13:00 UTC. Time now 2018-Jun-24 20:17 UTC.
Position N 24°54' W 086°48'.

Type: Ship. MMSI: 353486000.

Wind from 120 at 5 knots

Barometer 1015.0 mb
Air temperature 30.0 ° C
Visibility: greater than 10.8 NM
Dewpoint 25.8 ° C
Water temperature 29.0 ° C

Date/timePositionNaut miles runAvg speedWind from/ knotsBaromVisibWave heightAir tempDewpointWater temp
2018-Jun-24 13:00N 24°54' W 086°48'25817.6 120 / 51015.010.8 30.025.829.0
2018-Jun-23 22:21N 20°36' W 086°56'616.2
2018-Jun-23 22:00N 20°31' W 086°59'2 4.2
2018-Jun-23 21:28N 20°29' W 086°59'0 0.0
2018-Jun-23 20:58N 20°29' W 086°59'0 0.0
2018-Jun-23 20:25N 20°29' W 086°59'0 0.0
2018-Jun-23 20:01N 20°29' W 086°59'0 0.0
2018-Jun-23 19:24N 20°29' W 086°59'0 0.0
2018-Jun-23 19:00N 20°29' W 086°59'0 0.0
2018-Jun-23 18:30N 20°29' W 086°59'0 0.0
2018-Jun-23 18:00N 20°29' W 086°59'0 0.0
2018-Jun-23 17:23N 20°29' W 086°59'0 0.0
2018-Jun-23 16:59N 20°29' W 086°59'0 0.0
2018-Jun-23 16:29N 20°29' W 086°59'0 0.0
2018-Jun-23 15:59N 20°29' W 086°59'0 0.0
2018-Jun-23 15:26N 20°29' W 086°59'0 0.0
2018-Jun-23 14:58N 20°29' W 086°59'0 0.0
2018-Jun-23 14:28N 20°29' W 086°59'0 0.0
2018-Jun-23 13:58N 20°29' W 086°59'0 0.0
2018-Jun-23 13:28N 20°29' W 086°59'0 0.0
2018-Jun-23 13:00N 20°29' W 086°59'0 0.0
2018-Jun-23 12:29N 20°29' W 086°59'2 3.9
2018-Jun-23 12:00N 20°30' W 086°59'4 7.3
2018-Jun-23 11:30N 20°34' W 086°58'34416.0
2018-Jun-22 14:00N 26°18' W 086°48'2524.6 200 / 131016.010.8 29.023.227.0
2018-Jun-22 13:00N 26°42' W 086°54'13 0.3 210 / 151014.010.8 28.022.129.0
2018-Jun-20 18:00N 26°30' W 087°00'12017.2 110 / 71015.010.8 30.024.329.0
2018-Jun-20 11:00N 24°30' W 086°48'23317.9 190 / 31014.010.8 27.024.129.0
2018-Jun-19 21:58N 20°37' W 086°56'716.1
2018-Jun-19 21:30N 20°30' W 086°59'1 2.5
2018-Jun-19 20:59N 20°29' W 086°59'0 0.0
2018-Jun-19 20:29N 20°29' W 086°59'0 0.0
2018-Jun-19 19:58N 20°29' W 086°59'0 0.0
2018-Jun-19 19:28N 20°29' W 086°59'0 0.0
2018-Jun-19 18:58N 20°29' W 086°59'0 0.0
2018-Jun-19 18:28N 20°29' W 086°59'0 0.0
2018-Jun-19 17:58N 20°29' W 086°59'0 0.0
2018-Jun-19 17:30N 20°29' W 086°59'0 0.0
2018-Jun-19 17:00N 20°29' W 086°59'0 0.0
2018-Jun-19 16:30N 20°29' W 086°59'0 0.0
2018-Jun-19 16:00N 20°29' W 086°59'0 0.0
2018-Jun-19 15:30N 20°29' W 086°59'0 0.0
2018-Jun-19 14:59N 20°29' W 086°59'0 0.0
2018-Jun-19 14:29N 20°29' W 086°59'0 0.0
2018-Jun-19 13:59N 20°29' W 086°59'0 0.0
2018-Jun-19 13:29N 20°29' W 086°59'0 0.0
2018-Jun-19 12:55N 20°29' W 086°59'0 0.0
2018-Jun-19 12:28N 20°29' W 086°59'0 1.1
2018-Jun-19 12:00N 20°29' W 086°59'3 5.7
2018-Jun-19 11:30N 20°30' W 087°02'9712.9
2018-Jun-19 04:00N 18°54' W 087°18'61 4.1 110 / 271014.010.8 28.025.227.0
2018-Jun-18 13:00N 19°48' W 086°48'16414.9 130 / 301015.010.8 27.024.128.0
2018-Jun-18 02:00N 22°24' W 085°54'20919.0 130 / 161017.010.8 28.026.627.0
2018-Jun-17 15:00N 25°48' W 086°42'4221.2 110 / 351017.0 26.019.925.0
2018-Jun-17 13:00N 26°30' W 086°48'129 3.7 110 / 251017.010.8 29.023.228.0
2018-Jun-16 02:00N 28°36' W 087°18'22417.2 110 / 111016.010.8 28.025.227.0
2018-Jun-15 13:00N 24°54' W 086°48'20518.7 110 / 111015.010.8 29.023.229.0
2018-Jun-15 02:00N 21°30' W 086°24'6216.8 090 / 331014.010.8 28.023.727.0
2018-Jun-14 22:18N 20°36' W 086°56'413.2
2018-Jun-14 22:00N 20°32' W 086°58'3 6.9
2018-Jun-14 21:30N 20°29' W 086°59'0 0.6
2018-Jun-14 20:59N 20°29' W 086°59'0 0.0
2018-Jun-14 20:29N 20°29' W 086°59'0 0.0
2018-Jun-14 19:59N 20°29' W 086°59'0 0.0
2018-Jun-14 19:29N 20°29' W 086°59'0 0.0
2018-Jun-14 18:56N 20°29' W 086°59'0 0.0
2018-Jun-14 18:28N 20°29' W 086°59'0 0.0
2018-Jun-14 17:58N 20°29' W 086°59'0 0.0
2018-Jun-14 17:28N 20°29' W 086°59'0 0.0
2018-Jun-14 16:58N 20°29' W 086°59'0 0.0
2018-Jun-14 16:30N 20°29' W 086°59'0 0.0
2018-Jun-14 16:00N 20°29' W 086°59'0 0.0
2018-Jun-14 15:30N 20°29' W 086°59'0 0.0
2018-Jun-14 15:00N 20°29' W 086°59'0 0.0
2018-Jun-14 14:27N 20°29' W 086°59'0 0.0
2018-Jun-14 13:59N 20°29' W 086°59'0 0.0
2018-Jun-14 13:29N 20°29' W 086°59'  

Dump ship's entire track history